Portada
METAR-TAF:

METAR-TAF

Aeroports :

Exmouth, Austràlia

latitud: 22-14S, longitud: 114-05E, altitud: 5 m

Observació

L'informe es va fer fa 24 minuts, a les 07:00 UTC
Vent 19 kt del Sud/Sud-Oest
Temperatura 36°C
Humitat 22%
Pressió 1007 hPa
Visibilitat 10 km o més

METAR: YPLM 110700Z AUTO 21019KT 9999 // NCD 36/11 Q1007 RF00.0/000.0

Hora: 15:24 (07:24 UTC)

Pronòstic

L'informe es va fer fa 1 hora i 59 minuts, a les 05:25 UTC
Pronòstic vàlid del 11 a les 05 UTC al 12 a les 06 UTC
Vent 20 kt del Sud/Sud-Oest
Visibilitat 10 km o més
sense núvols per sota de 1500 mi sense presència de cumulonimbus.
Evolucionant progressivament
l' 12 a les 00 UTC al 12 a les 02 UTC
Vent 14 kt del Sud
Visibilitat 10 km o més
sense núvols per sota de 1500 mi sense presència de cumulonimbus.

TAF: YPLM 110525Z 1105/1206 20020KT CAVOK BECMG 1200/1202 18014KT CAVOK

Observacions i pronòstics meteorològics de més de 4000 aeroports (METAR i TAF).

Les estacions disponibles són els punts grocs i vermells al mapa.

Posi el ratolí al punt desitjat per veure el nom de l'estació.

Feu clic per veure les observacions i els pronòstics meteorològics.

Per canviar el mapa: feu clic els botons verds amb una creu de color negre per apropar; al botó verd amb un guió per allunyar la imatge; o en les fletxes verdes per a mapes adjacents.


METAR-TAF: